createdAt,value
2018-06-20T00:01:11.735Z,22.27
2018-06-20T00:06:15.084Z,24.07
2018-06-20T00:11:19.479Z,21.60
2018-06-20T00:16:22.660Z,10.70
2018-06-20T00:21:26.104Z,33.17
2018-06-20T00:26:29.804Z,23.00
2018-06-20T00:31:33.181Z,21.00
2018-06-20T00:36:36.632Z,14.20
2018-06-20T00:41:39.796Z,9.63
2018-06-20T00:46:43.051Z,15.77
2018-06-20T00:51:46.751Z,11.90
2018-06-20T00:56:49.732Z,9.37
2018-06-20T01:01:53.027Z,6.43
2018-06-20T01:06:56.243Z,8.20
2018-06-20T01:11:59.389Z,15.00
2018-06-20T01:17:02.828Z,17.33
2018-06-20T01:22:06.705Z,11.90
2018-06-20T01:27:09.916Z,12.30
2018-06-20T01:32:12.980Z,11.13
2018-06-20T01:37:16.106Z,17.70
2018-06-20T01:42:19.184Z,13.00
2018-06-20T01:47:22.952Z,9.27
2018-06-20T01:52:26.280Z,13.40
2018-06-20T01:57:29.499Z,12.67
2018-06-20T02:02:33.032Z,8.27
2018-06-20T02:07:36.596Z,20.87
2018-06-20T02:12:39.727Z,13.53
2018-06-20T02:17:43.204Z,14.60
2018-06-20T02:22:46.675Z,20.50
2018-06-20T02:27:49.877Z,10.53
2018-06-20T02:32:53.272Z,18.13
2018-06-20T02:37:57.054Z,11.33
2018-06-20T02:43:00.403Z,18.43
2018-06-20T02:48:03.581Z,15.53
2018-06-20T02:53:06.722Z,10.23
2018-06-20T02:58:09.730Z,10.17
2018-06-20T03:03:12.976Z,9.20
2018-06-20T03:08:16.044Z,9.60
2018-06-20T03:13:19.601Z,18.27
2018-06-20T03:18:23.277Z,16.67
2018-06-20T03:23:26.380Z,24.03
2018-06-20T03:28:29.245Z,12.40
2018-06-20T03:33:32.388Z,7.23
2018-06-20T03:38:35.940Z,8.10
2018-06-20T03:43:39.448Z,10.50
2018-06-20T03:48:42.311Z,9.53
2018-06-20T03:53:45.399Z,10.67
2018-06-20T03:58:48.265Z,13.63
2018-06-20T04:03:51.624Z,16.83
2018-06-20T04:08:54.708Z,13.80
2018-06-20T04:13:58.060Z,10.73
2018-06-20T04:19:00.945Z,11.93
2018-06-20T04:24:04.576Z,8.57
2018-06-20T04:29:07.408Z,11.93
2018-06-20T04:34:10.345Z,18.07
2018-06-20T04:39:13.512Z,4.00
2018-06-20T04:44:16.592Z,5.10
2018-06-20T04:49:19.726Z,13.03
2018-06-20T04:54:22.884Z,16.30
2018-06-20T04:59:25.748Z,14.03
2018-06-20T05:04:28.611Z,22.33
2018-06-20T05:09:31.506Z,12.90
2018-06-20T05:14:37.145Z,15.63
2018-06-20T05:19:40.389Z,13.60
2018-06-20T05:24:43.347Z,17.87
2018-06-20T05:29:46.227Z,5.83
2018-06-20T05:34:49.153Z,16.23
2018-06-20T05:39:56.196Z,7.53
2018-06-20T05:44:59.323Z,17.57
2018-06-20T05:50:02.669Z,21.17
2018-06-20T05:55:05.777Z,16.07
2018-06-20T06:00:08.651Z,17.80
2018-06-20T06:05:14.215Z,11.20
2018-06-20T06:10:18.154Z,16.90
2018-06-20T06:15:21.083Z,25.03
2018-06-20T06:20:27.768Z,19.07
2018-06-20T06:25:31.337Z,22.97
2018-06-20T06:30:34.554Z,21.40
2018-06-20T06:35:37.472Z,25.57
2018-06-20T06:40:40.707Z,21.20
2018-06-20T06:45:43.894Z,27.37
2018-06-20T06:50:46.899Z,29.47
2018-06-20T06:55:49.941Z,24.00
2018-06-20T07:00:52.792Z,32.93
2018-06-20T07:05:55.693Z,31.57
2018-06-20T07:10:58.647Z,43.97
2018-06-20T07:16:02.294Z,53.23
2018-06-20T07:21:05.218Z,38.10
2018-06-20T07:26:08.158Z,44.30
2018-06-20T07:31:11.063Z,36.23
2018-06-20T07:36:14.018Z,36.47
2018-06-20T07:41:17.148Z,36.43
2018-06-20T07:46:20.456Z,38.53
2018-06-20T07:51:23.324Z,39.63
2018-06-20T07:56:26.513Z,38.90
2018-06-20T08:01:45.968Z,39.47
2018-06-20T08:06:54.432Z,41.60
2018-06-20T08:12:03.073Z,39.80
2018-06-20T08:19:22.809Z,41.03
2018-06-20T08:24:26.549Z,39.63
2018-06-20T08:29:29.632Z,33.10
2018-06-20T08:34:32.781Z,30.93
2018-06-20T08:39:35.662Z,36.23
2018-06-20T08:44:38.566Z,31.93
2018-06-20T08:49:41.472Z,35.87
2018-06-20T08:54:44.358Z,37.67
2018-06-20T08:59:47.453Z,44.87
2018-06-20T09:04:55.952Z,28.57
2018-06-20T09:10:04.833Z,46.10
2018-06-20T09:15:13.276Z,37.00
2018-06-20T09:20:16.149Z,31.37
2018-06-20T09:25:19.305Z,33.53
2018-06-20T09:30:22.513Z,44.63
2018-06-20T09:35:25.364Z,36.10
2018-06-20T09:40:28.563Z,29.00
2018-06-20T09:45:31.449Z,25.80
2018-06-20T09:50:39.911Z,34.57
2018-06-20T09:55:42.766Z,24.30
2018-06-20T10:00:51.304Z,29.80
2018-06-20T10:05:59.587Z,28.60
2018-06-20T10:11:08.301Z,28.70
2018-06-20T10:16:11.728Z,28.00
2018-06-20T10:21:14.662Z,27.83
2018-06-20T10:26:17.529Z,23.97
2018-06-20T10:31:20.783Z,24.17
2018-06-20T10:36:23.666Z,22.50
2018-06-20T10:41:31.140Z,25.67
2018-06-20T10:46:39.551Z,33.63
2018-06-20T10:51:43.289Z,27.30
2018-06-20T10:56:52.076Z,19.57
2018-06-20T11:02:00.623Z,29.47
2018-06-20T11:07:09.025Z,28.37
2018-06-20T11:12:17.510Z,25.90
2018-06-20T11:17:20.404Z,25.83
2018-06-20T11:22:23.394Z,35.30
2018-06-20T11:27:27.928Z,31.53
2018-06-20T11:32:32.436Z,39.83
2018-06-20T11:37:40.169Z,34.63
2018-06-20T11:42:43.328Z,42.50
2018-06-20T11:47:46.741Z,34.27
2018-06-20T11:52:55.888Z,27.50
2018-06-20T11:58:04.359Z,25.20
2018-06-20T12:03:13.312Z,22.97
2018-06-20T12:08:21.709Z,29.70
2018-06-20T12:13:30.188Z,19.43
2018-06-20T12:18:38.658Z,21.90
2018-06-20T12:23:47.066Z,22.93
2018-06-20T12:29:03.776Z,19.43
2018-06-20T12:34:13.153Z,17.80
2018-06-20T12:39:15.436Z,24.10
2018-06-20T12:45:23.987Z,25.97
2018-06-20T12:50:27.717Z,22.53
2018-06-20T12:55:30.612Z,15.60
2018-06-20T13:00:33.472Z,14.70
2018-06-20T13:05:36.552Z,19.07
2018-06-20T13:10:39.526Z,16.47
2018-06-20T13:15:42.409Z,17.37
2018-06-20T13:20:45.851Z,15.10
2018-06-20T13:25:48.739Z,23.40
2018-06-20T13:30:57.679Z,19.50
2018-06-20T13:36:06.355Z,27.37
2018-06-20T13:41:14.576Z,25.73
2018-06-20T13:46:22.911Z,29.37
2018-06-20T13:51:25.772Z,38.60
2018-06-20T13:56:32.100Z,35.80
2018-06-20T14:01:35.428Z,42.53
2018-06-20T14:06:38.420Z,49.67
2018-06-20T14:11:41.713Z,45.23
2018-06-20T14:16:45.231Z,41.00
2018-06-20T14:21:48.221Z,45.33
2018-06-20T14:26:51.365Z,42.27
2018-06-20T14:31:59.915Z,46.57
2018-06-20T14:37:08.295Z,48.40
2018-06-20T14:42:16.564Z,49.53
2018-06-20T14:47:19.456Z,40.33
2018-06-20T14:52:22.373Z,41.83
2018-06-20T14:57:25.526Z,35.87
2018-06-20T15:02:28.401Z,35.13
2018-06-20T15:07:31.709Z,33.07
2018-06-20T15:12:34.731Z,37.77
2018-06-20T15:17:37.626Z,19.53
2018-06-20T15:22:47.789Z,21.77
2018-06-20T15:27:56.426Z,20.93
2018-06-20T15:33:06.046Z,19.50
2018-06-20T15:38:17.579Z,32.03
2018-06-20T15:43:20.586Z,27.23
2018-06-20T15:48:23.609Z,32.23
2018-06-20T15:53:26.711Z,24.33
2018-06-20T15:58:29.636Z,25.03
2018-06-20T16:03:38.272Z,38.10
2018-06-20T16:08:47.604Z,38.60
2018-06-20T16:13:50.485Z,43.37
2018-06-20T16:18:58.963Z,43.90
2018-06-20T16:24:07.518Z,53.67
2018-06-20T16:29:15.877Z,65.13
2018-06-20T16:34:19.605Z,50.87
2018-06-20T16:39:22.978Z,55.07
2018-06-20T16:44:25.857Z,46.73
2018-06-20T16:49:28.750Z,36.90
2018-06-20T16:54:31.922Z,36.90
2018-06-20T16:59:35.066Z,26.80
2018-06-20T17:04:37.935Z,27.87
2018-06-20T17:09:42.692Z,29.97
2018-06-20T17:14:51.416Z,29.63
2018-06-20T17:19:59.803Z,31.43
2018-06-20T17:25:08.233Z,27.13
2018-06-20T17:30:11.216Z,24.33
2018-06-20T17:35:14.866Z,23.57
2018-06-20T17:40:22.653Z,27.37
2018-06-20T17:45:26.444Z,27.40
2018-06-20T17:50:32.801Z,26.33
2018-06-20T17:55:35.906Z,29.77
2018-06-20T18:00:46.154Z,27.77
2018-06-20T18:05:54.610Z,21.53
2018-06-20T18:11:03.128Z,35.13
2018-06-20T18:16:11.437Z,27.73
2018-06-20T18:21:14.910Z,28.47
2018-06-20T18:26:17.929Z,26.67
2018-06-20T18:31:20.893Z,34.17
2018-06-20T18:36:24.253Z,29.90
2018-06-20T18:41:27.570Z,25.93
2018-06-20T18:46:30.953Z,28.13
2018-06-20T18:51:34.229Z,26.27
2018-06-20T18:56:38.295Z,27.03
2018-06-20T19:01:47.644Z,42.30
2018-06-20T19:06:57.439Z,35.57
2018-06-20T19:12:01.430Z,37.10
2018-06-20T19:17:04.863Z,38.67
2018-06-20T19:22:08.654Z,38.90
2018-06-20T19:27:12.176Z,40.37
2018-06-20T19:32:15.565Z,35.93
2018-06-20T19:37:18.950Z,48.17
2018-06-20T19:42:23.628Z,45.33
2018-06-20T19:47:27.772Z,35.37
2018-06-20T19:52:30.950Z,42.97
2018-06-20T19:57:34.107Z,38.67
2018-06-20T20:02:37.475Z,44.90
2018-06-20T20:07:40.606Z,32.03
2018-06-20T20:12:44.200Z,45.77
2018-06-20T20:17:47.716Z,42.43
2018-06-20T20:22:50.668Z,43.13
2018-06-20T20:27:53.572Z,46.97
2018-06-20T20:32:56.457Z,40.13
2018-06-20T20:37:59.416Z,26.33
2018-06-20T20:43:02.850Z,41.83
2018-06-20T20:48:06.278Z,52.47
2018-06-20T20:53:09.343Z,55.53
2018-06-20T20:58:13.372Z,51.53
2018-06-20T21:03:16.297Z,52.97
2018-06-20T21:08:19.490Z,44.27
2018-06-20T21:13:22.784Z,57.13
2018-06-20T21:18:26.485Z,40.80
2018-06-20T21:23:29.457Z,49.87
2018-06-20T21:28:32.510Z,57.23
2018-06-20T21:33:35.964Z,51.87
2018-06-20T21:38:39.381Z,60.30
2018-06-20T21:43:42.877Z,60.80
2018-06-20T21:48:45.756Z,61.97
2018-06-20T21:53:49.096Z,53.40
2018-06-20T21:58:52.025Z,54.90
2018-06-20T22:03:55.235Z,61.30
2018-06-20T22:08:59.932Z,58.43
2018-06-20T22:14:04.730Z,53.73
2018-06-20T22:19:08.821Z,62.67
2018-06-20T22:24:12.878Z,61.03
2018-06-20T22:29:17.663Z,71.77
2018-06-20T22:34:21.044Z,88.40
2018-06-20T22:39:25.398Z,89.80
2018-06-20T22:44:28.824Z,68.03
2018-06-20T22:49:32.759Z,74.40
2018-06-20T22:54:37.809Z,106.87
2018-06-20T22:59:41.268Z,68.70
2018-06-20T23:04:45.227Z,68.97
2018-06-20T23:14:46.301Z,65.97
2018-06-20T23:19:50.340Z,70.30
2018-06-20T23:24:55.201Z,74.33
2018-06-20T23:29:58.417Z,68.60
2018-06-20T23:35:04.746Z,57.47
2018-06-20T23:40:07.945Z,76.37
2018-06-20T23:45:11.284Z,76.43
2018-06-20T23:50:15.892Z,69.13
2018-06-20T23:55:20.605Z,87.43
